Latest Weather Observations for Shepparton

IDV60801

Issued at 7:05 pm EDT Sunday 26 October 2014 (issued every 30 minutes, with the page automatically refreshed every 10 minutes)

About weather observations | Map of weather stations | Latest weather observations for VIC | Other Formats
Station Details ID: 081125 Name: SHEPPARTON AIRPORT Lat: -36.43 Lon: 145.39 Height: 113.9 m
Data from the previous 72 hours. | See also: Recent months at Shepparton
Date/Time
EDT
Temp
°C
App
Temp
°C
Dew
Point
Rel
Hum
%
Delta-T
°C
Wind Press
QNH
hPa
Press
MSL
hPa
Rain
since 9 am
mm
Dir
 
Spd
km/h
Gust
km/h
Spd
kts
Gust
kts
26/07:00pm 23.8 21.7 8.2 37 8.3 N 9 13 5 7 1010.6 1010.5 0.0
26/06:30pm 24.1 22.6 9.3 39 8.1 NNE 7 9 4 5 1010.7 1010.6 0.0
26/06:00pm 24.0 22.2 9.6 40 7.9 NE 9 13 5 7 1010.9 1010.8 0.0
26/05:30pm 24.2 22.3 9.0 38 8.2 E 9 13 5 7 1010.6 1010.5 0.0
26/05:00pm 24.2 21.5 9.0 38 8.3 ESE 13 17 7 9 1010.6 1010.5 0.0
26/04:30pm 24.6 22.9 7.7 34 9.0 S 6 9 3 5 1010.8 1010.7 0.0
26/04:00pm 24.8 23.0 7.0 32 9.4 W 6 9 3 5 1011.3 1011.2 0.0
26/03:30pm 25.0 22.5 8.1 34 9.1 W 11 20 6 11 1011.4 1011.3 0.0
26/03:00pm 25.4 21.3 8.0 33 9.3 W 19 28 10 15 1011.8 1011.7 0.0
26/02:30pm 25.9 23.3 9.3 35 9.1 SW 13 20 7 11 1012.0 1011.9 0.0
26/02:00pm 24.8 20.6 8.3 35 8.9 WSW 20 30 11 16 1012.2 1012.1 0.0
26/01:30pm 25.3 21.2 7.9 33 9.3 WSW 19 30 10 16 1012.0 1011.9 0.0
26/01:00pm 23.9 21.7 9.5 40 7.9 SW 11 19 6 10 1011.5 1011.4 0.0
26/12:30pm 23.6 21.0 10.6 44 7.2 SW 15 22 8 12 1012.1 1012.0 0.0
26/12:00pm 22.9 21.2 10.0 44 7.1 WSW 9 15 5 8 1012.0 1011.9 0.0
26/11:30am 22.0 18.5 10.2 47 6.5 SW 19 26 10 14 1012.5 1012.4 0.0
26/11:00am 20.9 18.7 10.7 52 5.6 WSW 13 24 7 13 1012.7 1012.6 0.0
26/10:30am 20.0 18.5 10.4 54 5.2 WSW 9 17 5 9 1012.6 1012.5 0.0
26/10:00am 18.2 17.2 10.3 60 4.2 SW 6 13 3 7 1012.6 1012.5 0.0
26/09:30am 17.1 15.6 10.7 66 3.4 SSW 9 15 5 8 1012.5 1012.4 0.0
26/09:00am 16.4 13.9 10.9 70 3.0 S 15 19 8 10 1012.6 1012.5 0.0
26/08:30am 14.9 11.9 10.7 76 2.2 S 17 22 9 12 1012.4 1012.3 0.0
26/08:00am 13.7 11.9 10.7 82 1.6 S 11 15 6 8 1012.0 1011.9 0.0
26/07:30am 12.3 10.5 10.9 91 0.7 SW 11 17 6 9 1012.1 1012.0 0.0
26/07:00am 11.4 9.5 10.5 94 0.5 SW 11 15 6 8 1011.9 1011.8 0.0
26/06:30am 10.6 8.9 9.8 95 0.4 SSW 9 13 5 7 1011.2 1011.1 0.0
26/06:00am 10.6 9.3 9.8 95 0.4 SW 7 11 4 6 1011.3 1011.2 0.0
26/05:30am 10.4 9.0 9.6 95 0.4 WSW 7 11 4 6 1011.3 1011.2 0.0
26/05:00am 11.1 9.1 10.2 94 0.5 SW 11 15 6 8 1011.1 1011.0 0.0
26/04:30am 11.1 10.0 10.0 93 0.6 SW 6 9 3 5 1010.8 1010.7 0.0
26/04:00am 11.2 9.9 9.9 92 0.7 SSW 7 13 4 7 1010.6 1010.5 0.0
26/03:30am 11.6 9.6 10.3 92 0.7 SW 11 13 6 7 1011.0 1010.9 0.0
26/03:00am 11.9 10.3 10.3 90 0.8 SSW 9 15 5 8 1011.1 1011.0 0.0
26/02:30am 12.2 10.3 10.4 89 0.9 SSW 11 15 6 8 1011.2 1011.1 0.0
26/02:00am 12.4 10.4 10.3 87 1.1 S 11 15 6 8 1011.4 1011.3 0.0
26/01:30am 12.9 9.8 10.4 85 1.3 SSW 17 22 9 12 1011.8 1011.7 0.0
26/01:00am 13.5 10.5 10.5 82 1.6 S 17 22 9 12 1012.2 1012.1 0.0
26/12:30am 13.9 10.9 10.7 81 1.7 S 17 22 9 12 1012.4 1012.3 0.0
26/12:00am 14.3 11.8 10.9 80 1.8 SSW 15 20 8 11 1012.5 1012.4 0.0
 
Date/Time
EDT
Temp
°C
App
Temp
°C
Dew
Point
Rel
Hum
%
Delta-T
°C
Wind Press
QNH
hPa
Press
MSL
hPa
Rain
since 9 am
mm
Dir
 
Spd
km/h
Gust
km/h
Spd
kts
Gust
kts
25/11:30pm 14.6 11.6 10.8 78 2.0 SSW 17 22 9 12 1012.4 1012.3 0.0
25/11:00pm 15.4 12.5 11.0 75 2.4 SSW 17 22 9 12 1012.5 1012.4 0.0
25/10:30pm 16.5 13.3 11.2 71 2.9 S 19 26 10 14 1012.4 1012.3 0.0
25/10:00pm 17.5 14.7 11.5 68 3.3 S 17 24 9 13 1012.2 1012.1 0.0
25/09:30pm 18.5 15.5 12.0 66 3.6 S 19 30 10 16 1012.0 1011.9 0.0
25/09:00pm 19.3 16.7 12.1 63 4.0 SSW 17 20 9 11 1011.6 1011.5 0.0
25/08:30pm 20.5 18.0 12.2 59 4.7 S 17 24 9 13 1011.3 1011.2 0.0
25/08:00pm 21.9 18.8 11.6 52 5.8 S 19 24 10 13 1011.0 1010.9 0.0
25/07:30pm 23.7 20.5 10.0 42 7.5 S 17 22 9 12 1010.7 1010.6 0.0
25/07:00pm 25.4 21.0 7.5 32 9.5 S 20 28 11 15 1010.3 1010.2 0.0
25/06:30pm 26.5 21.9 9.8 35 9.3 S 24 33 13 18 1010.0 1010.0 0.0
25/06:00pm 26.8 23.5 10.9 37 9.0 SSW 19 26 10 14 1009.9 1009.9 0.0
25/05:30pm 27.5 23.9 10.7 35 9.5 S 20 28 11 15 1009.9 1009.9 0.0
25/05:00pm 28.4 24.4 10.6 33 10.1 S 22 28 12 15 1010.2 1010.1 0.0
25/04:30pm 30.3 27.7 10.8 30 11.2 S 15 24 8 13 1010.4 1010.3 0.0
25/04:00pm 29.8 26.5 10.9 31 10.9 SSE 19 20 10 11 1010.5 1010.4 0.0
25/03:30pm 29.6 27.7 9.2 28 11.4 SSW 9 13 5 7 1011.1 1011.0 0.0
25/03:00pm 30.0 28.3 8.4 26 12.0 SSW 7 13 4 7 1012.0 1011.9 0.0
25/02:30pm 30.6 29.8 9.5 27 11.9 SW 4 11 2 6 1012.3 1012.2 0.0
25/02:00pm 29.6 27.9 9.7 29 11.2 W 9 13 5 7 1012.6 1012.5 0.0
25/01:30pm 29.7 28.3 8.7 27 11.7 ESE 6 13 3 7 1013.1 1013.0 0.0
25/01:00pm 28.9 27.6 9.1 29 11.0 NE 6 13 3 7 1013.5 1013.4 0.0
25/12:30pm 28.9 28.0 10.6 32 10.4 NNE 6 13 3 7 1013.7 1013.6 0.0
25/12:00pm 27.6 26.7 10.8 35 9.6 NNE 6 11 3 6 1014.3 1014.2 0.0
25/11:30am 26.3 24.8 12.0 41 8.2 N 11 17 6 9 1014.4 1014.3 0.0
25/11:00am 25.3 24.0 11.1 41 8.0 NE 9 13 5 7 1014.9 1014.8 0.0
25/10:30am 23.8 23.3 12.1 48 6.7 E 6 11 3 6 1015.2 1015.1 0.0
25/10:00am 22.2 21.7 12.5 54 5.5 E 7 13 4 7 1015.2 1015.1 0.0
25/09:30am 20.5 20.1 13.0 62 4.3 SE 7 11 4 6 1015.4 1015.3 0.0
25/09:00am 18.5 17.8 13.1 71 3.1 SSE 9 13 5 7 1015.4 1015.3 0.0
25/08:30am 17.2 15.4 13.3 78 2.2 S 15 20 8 11 1015.5 1015.4 0.0
25/08:00am 16.0 14.1 13.1 83 1.6 S 15 20 8 11 1015.5 1015.4 0.0
25/07:30am 14.9 13.5 13.3 90 0.9 S 13 19 7 10 1015.2 1015.1 0.0
25/07:00am 14.1 13.0 13.0 93 0.6 S 11 15 6 8 1014.9 1014.8 0.0
25/06:30am 13.7 12.9 12.8 94 0.5 S 9 13 5 7 1014.8 1014.7 0.0
25/06:00am 13.5 12.5 12.4 93 0.6 SSW 9 13 5 7 1014.5 1014.4 0.0
25/05:30am 13.9 12.3 12.8 93 0.6 S 13 17 7 9 1014.1 1014.0 0.0
25/05:00am 14.1 12.1 12.8 92 0.7 S 15 19 8 10 1013.9 1013.8 0.0
25/04:30am 13.7 12.4 12.4 92 0.7 S 11 13 6 7 1013.5 1013.4 0.0
25/04:00am 14.1 12.8 12.5 90 0.9 S 11 15 6 8 1013.6 1013.5 0.0
25/03:30am 14.1 13.4 12.0 87 1.1 S 7 9 4 5 1013.7 1013.6 0.0
25/03:00am 14.4 13.3 11.9 85 1.4 S 9 13 5 7 1013.6 1013.5 0.0
25/02:30am 15.1 14.0 12.1 82 1.6 SSW 9 11 5 6 1013.7 1013.6 0.0
25/02:00am 15.9 15.3 11.7 76 2.3 SW 6 9 3 5 1013.8 1013.7 0.0
25/01:30am 16.6 14.8 9.3 62 3.8 SSW 9 11 5 6 1013.9 1013.8 0.0
25/01:00am 17.7 14.8 6.6 48 5.5 SW 11 13 6 7 1013.8 1013.7 0.0
25/12:30am 17.6 14.5 7.1 50 5.3 WSW 13 17 7 9 1013.9 1013.8 0.0
25/12:00am 16.1 14.8 10.0 67 3.2 W 7 9 4 5 1014.0 1013.9 0.0
 
Date/Time
EDT
Temp
°C
App
Temp
°C
Dew
Point
Rel
Hum
%
Delta-T
°C
Wind Press
QNH
hPa
Press
MSL
hPa
Rain
since 9 am
mm
Dir
 
Spd
km/h
Gust
km/h
Spd
kts
Gust
kts
24/11:30pm 16.3 16.1 9.0 62 3.8 CALM 0 0 0 0 1013.7 1013.6 0.0
24/11:00pm 17.9 17.9 9.8 59 4.3 CALM 0 0 0 0 1013.4 1013.3 0.0
24/10:30pm 17.0 15.5 9.2 60 4.1 N 7 7 4 4 1013.3 1013.2 0.0
24/10:00pm 17.2 17.0 9.1 59 4.2 CALM 0 0 0 0 1013.3 1013.2 0.0
24/09:30pm 18.9 18.8 9.4 54 5.0 CALM 0 0 0 0 1013.1 1013.0 0.0
24/09:00pm 20.1 19.2 9.4 50 5.7 N 4 6 2 3 1012.7 1012.6 0.0
24/08:30pm 21.2 19.4 7.8 42 7.0 N 7 7 4 4 1012.4 1012.3 0.0
24/08:00pm 25.0 22.8 5.2 28 10.1 NNW 6 7 3 4 1012.3 1012.2 0.0
24/07:30pm 26.5 23.5 4.3 24 11.2 WNW 9 13 5 7 1012.0 1011.9 0.0
24/07:00pm 28.6 25.1 3.5 20 12.7 NW 11 13 6 7 1011.4 1011.3 0.0
24/06:30pm 29.5 25.3 1.9 17 13.6 NW 13 20 7 11 1011.0 1010.9 0.0
24/06:00pm 29.6 24.8 2.8 18 13.5 WNW 17 22 9 12 1011.2 1011.1 0.0
24/05:30pm 29.6 24.5 4.3 20 13.0 WNW 20 30 11 16 1011.0 1010.9 0.0
24/05:00pm 30.1 26.5 6.7 23 12.6 WSW 15 20 8 11 1010.9 1010.8 0.0
24/04:30pm 29.8 25.1 9.3 28 11.5 W 24 35 13 19 1011.2 1011.1 0.0
24/04:00pm 30.1 27.7 10.1 29 11.4 W 13 26 7 14 1011.1 1011.0 0.0
24/03:30pm 29.5 26.1 11.1 32 10.6 NW 20 32 11 17 1011.3 1011.2 0.0
24/03:00pm 28.2 23.9 8.0 28 11.0 WNW 20 30 11 16 1011.6 1011.5 0.0
24/02:30pm 29.5 26.1 11.1 32 10.6 W 20 37 11 20 1011.8 1011.7 0.0
24/02:00pm 28.6 26.3 14.1 41 8.7 W 19 26 10 14 1012.0 1011.9 0.0
24/01:30pm 28.1 26.0 15.1 45 7.9 WSW 20 28 11 15 1012.1 1012.0 0.0
24/01:00pm 26.9 24.7 14.3 46 7.6 W 19 26 10 14 1012.4 1012.3 0.0
24/12:30pm 28.1 25.8 14.7 44 8.1 WSW 20 26 11 14 1012.3 1012.2 0.0
24/12:00pm 28.4 26.4 13.9 41 8.7 WNW 17 24 9 13 1012.4 1012.3 0.0
24/11:30am 27.4 24.4 12.6 40 8.7 WNW 20 30 11 16 1012.5 1012.4 0.0
24/11:00am 27.4 26.3 13.0 41 8.5 NNW 11 20 6 11 1012.5 1012.4 0.0
24/10:30am 26.2 24.7 11.9 41 8.2 N 11 19 6 10 1012.5 1012.4 0.0
24/10:00am 25.0 22.3 11.6 43 7.6 N 17 22 9 12 1012.6 1012.5 0.0
24/09:30am 23.8 21.2 12.1 48 6.7 N 17 24 9 13 1012.9 1012.8 0.0
24/09:00am 22.2 19.1 12.2 53 5.7 N 20 32 11 17 1012.9 1012.8 0.0
24/08:30am 21.5 18.9 12.1 55 5.3 NNE 17 26 9 14 1012.9 1012.8 0.0
24/08:00am 20.3 18.6 12.5 61 4.4 NE 13 17 7 9 1012.9 1012.8 0.0
24/07:30am 19.0 17.5 12.0 64 3.9 NE 11 15 6 8 1012.8 1012.7 0.0
24/07:00am 18.3 17.5 11.8 66 3.6 ENE 7 13 4 7 1012.6 1012.5 0.0
24/06:30am 18.1 16.9 11.7 66 3.5 NE 9 13 5 7 1012.3 1012.2 0.0
24/06:00am 18.6 17.0 11.4 63 4.0 NE 11 13 6 7 1012.1 1012.0 0.0
24/05:30am 19.3 17.0 11.6 61 4.3 NE 15 22 8 12 1011.6 1011.5 0.0
24/05:00am 19.6 17.6 11.4 59 4.5 NE 13 20 7 11 1011.3 1011.2 0.0
24/04:30am 19.9 17.9 11.4 58 4.7 NE 13 20 7 11 1011.4 1011.3 0.0
24/04:00am 20.0 17.5 11.2 57 4.9 NE 15 19 8 10 1011.3 1011.2 0.0
24/03:30am 19.6 17.8 12.1 62 4.2 NE 13 19 7 10 1011.4 1011.3 0.0
24/03:00am 14.8 14.5 13.2 90 0.9 ESE 7 9 4 5 1011.7 1011.6 0.0
24/02:30am 14.6 13.9 13.3 92 0.7 ESE 9 9 5 5 1011.9 1011.8 0.0
24/02:00am 14.8 14.2 13.5 92 0.7 ESE 9 11 5 6 1012.1 1012.0 0.0
24/01:30am 15.1 14.9 13.5 90 0.9 SSE 7 11 4 6 1012.4 1012.3 0.0
24/01:00am 15.6 15.1 13.8 89 1.0 SE 9 11 5 6 1012.8 1012.7 0.0
24/12:30am 16.1 15.6 13.9 87 1.2 SSE 9 11 5 6 1013.1 1013.0 0.0
24/12:00am 16.8 16.5 14.3 85 1.4 SSE 9 13 5 7 1012.9 1012.8 0.0
 
Date/Time
EDT
Temp
°C
App
Temp
°C
Dew
Point
Rel
Hum
%
Delta-T
°C
Wind Press
QNH
hPa
Press
MSL
hPa
Rain
since 9 am
mm
Dir
 
Spd
km/h
Gust
km/h
Spd
kts
Gust
kts
23/11:30pm 17.2 16.5 14.3 83 1.7 S 11 13 6 7 1012.8 1012.7 0.0
23/11:00pm 17.7 17.3 14.0 79 2.1 S 9 11 5 6 1012.7 1012.6 0.0
23/10:30pm 18.4 18.5 14.5 78 2.3 S 7 9 4 5 1012.6 1012.5 0.0
23/10:00pm 19.2 19.0 14.7 75 2.6 S 9 11 5 6 1012.6 1012.5 0.0
23/09:30pm 20.0 19.8 14.8 72 3.1 S 9 15 5 8 1012.4 1012.3 0.0
23/09:00pm 20.8 21.1 14.9 69 3.5 S 7 13 4 7 1012.1 1012.0 0.0
23/08:30pm 21.9 21.2 15.3 66 3.9 S 13 19 7 10 1011.7 1011.6 0.0
23/08:00pm 23.1 22.5 15.7 63 4.5 S 13 15 7 8 1011.5 1011.4 0.0
23/07:30pm 24.6 23.7 15.8 58 5.4 S 15 20 8 11 1011.3 1011.2 0.0

Other Formats:

Comma delimited format used in spreadsheet applications
http://www.bom.gov.au/fwo/IDV60801/IDV60801.94875.axf

JavaScript Object Notation format (JSON) in row-major order
http://www.bom.gov.au/fwo/IDV60801/IDV60801.94875.json